sensor_id;sensor_type;location;lat;lon;timestamp;temperature;humidity
55777;DHT22;54079;44.540;18.784;2023-10-08T00:00:48;13.10;96.30
55777;DHT22;54079;44.540;18.784;2023-10-08T00:03:22;13.20;95.50
55777;DHT22;54079;44.540;18.784;2023-10-08T00:05:48;13.40;95.40
55777;DHT22;54079;44.540;18.784;2023-10-08T00:08:17;13.40;95.20
55777;DHT22;54079;44.540;18.784;2023-10-08T00:10:43;13.20;94.20
55777;DHT22;54079;44.540;18.784;2023-10-08T00:13:11;13.50;95.50
55777;DHT22;54079;44.540;18.784;2023-10-08T00:15:42;13.60;94.80
55777;DHT22;54079;44.540;18.784;2023-10-08T00:18:26;13.80;94.40
55777;DHT22;54079;44.540;18.784;2023-10-08T00:20:54;13.80;94.80
55777;DHT22;54079;44.540;18.784;2023-10-08T00:23:43;13.90;93.90
55777;DHT22;54079;44.540;18.784;2023-10-08T00:26:18;13.90;94.40
55777;DHT22;54079;44.540;18.784;2023-10-08T00:28:54;14.00;94.30
55777;DHT22;54079;44.540;18.784;2023-10-08T00:31:21;13.90;94.60
55777;DHT22;54079;44.540;18.784;2023-10-08T00:33:51;14.00;93.70
55777;DHT22;54079;44.540;18.784;2023-10-08T00:36:17;14.10;94.40
55777;DHT22;54079;44.540;18.784;2023-10-08T00:38:47;14.20;93.40
55777;DHT22;54079;44.540;18.784;2023-10-08T00:41:19;14.10;93.50
55777;DHT22;54079;44.540;18.784;2023-10-08T00:43:48;14.10;94.70
55777;DHT22;54079;44.540;18.784;2023-10-08T00:46:16;14.20;95.00
55777;DHT22;54079;44.540;18.784;2023-10-08T00:48:54;14.20;94.80
55777;DHT22;54079;44.540;18.784;2023-10-08T00:51:25;13.90;94.90
55777;DHT22;54079;44.540;18.784;2023-10-08T00:54:01;14.10;94.90
55777;DHT22;54079;44.540;18.784;2023-10-08T00:56:35;14.20;94.40
55777;DHT22;54079;44.540;18.784;2023-10-08T00:59:33;14.00;94.80
55777;DHT22;54079;44.540;18.784;2023-10-08T01:02:10;14.10;93.40
55777;DHT22;54079;44.540;18.784;2023-10-08T01:04:41;14.30;93.10
55777;DHT22;54079;44.540;18.784;2023-10-08T01:07:10;14.40;94.10
55777;DHT22;54079;44.540;18.784;2023-10-08T01:09:44;14.50;93.90
55777;DHT22;54079;44.540;18.784;2023-10-08T01:12:20;14.60;93.70
55777;DHT22;54079;44.540;18.784;2023-10-08T01:14:58;14.50;93.20
55777;DHT22;54079;44.540;18.784;2023-10-08T01:17:39;14.50;91.90
55777;DHT22;54079;44.540;18.784;2023-10-08T01:20:18;14.40;93.10
55777;DHT22;54079;44.540;18.784;2023-10-08T01:23:16;14.50;92.20
55777;DHT22;54079;44.540;18.784;2023-10-08T01:25:54;14.60;91.90
55777;DHT22;54079;44.540;18.784;2023-10-08T01:28:49;14.60;93.40
55777;DHT22;54079;44.540;18.784;2023-10-08T01:31:15;14.60;92.70
55777;DHT22;54079;44.540;18.784;2023-10-08T01:33:41;14.40;92.30
55777;DHT22;54079;44.540;18.784;2023-10-08T01:36:15;14.60;92.30
55777;DHT22;54079;44.540;18.784;2023-10-08T01:38:41;14.60;92.30
55777;DHT22;54079;44.540;18.784;2023-10-08T01:41:08;14.70;91.30
55777;DHT22;54079;44.540;18.784;2023-10-08T01:43:56;14.60;92.30
55777;DHT22;54079;44.540;18.784;2023-10-08T01:46:24;14.50;92.30
55777;DHT22;54079;44.540;18.784;2023-10-08T01:48:51;14.70;92.30
55777;DHT22;54079;44.540;18.784;2023-10-08T01:51:25;14.90;92.40
55777;DHT22;54079;44.540;18.784;2023-10-08T01:54:02;14.80;92.70
55777;DHT22;54079;44.540;18.784;2023-10-08T01:56:28;14.90;92.20
55777;DHT22;54079;44.540;18.784;2023-10-08T01:58:55;14.70;92.50
55777;DHT22;54079;44.540;18.784;2023-10-08T02:01:21;14.80;92.70
55777;DHT22;54079;44.540;18.784;2023-10-08T02:03:47;14.90;92.40
55777;DHT22;54079;44.540;18.784;2023-10-08T02:06:13;14.90;92.10
55777;DHT22;54079;44.540;18.784;2023-10-08T02:08:39;15.00;93.00
55777;DHT22;54079;44.540;18.784;2023-10-08T02:11:06;14.90;91.60
55777;DHT22;54079;44.540;18.784;2023-10-08T02:13:34;15.00;91.50
55777;DHT22;54079;44.540;18.784;2023-10-08T02:16:00;15.10;92.00
55777;DHT22;54079;44.540;18.784;2023-10-08T02:18:27;15.10;91.70
55777;DHT22;54079;44.540;18.784;2023-10-08T02:20:54;15.20;92.10
55777;DHT22;54079;44.540;18.784;2023-10-08T02:23:20;15.30;92.00
55777;DHT22;54079;44.540;18.784;2023-10-08T02:25:47;15.30;92.00
55777;DHT22;54079;44.540;18.784;2023-10-08T02:28:13;15.30;92.40
55777;DHT22;54079;44.540;18.784;2023-10-08T02:30:42;15.30;92.70
55777;DHT22;54079;44.540;18.784;2023-10-08T02:33:08;15.20;92.10
55777;DHT22;54079;44.540;18.784;2023-10-08T02:35:42;15.20;91.80
55777;DHT22;54079;44.540;18.784;2023-10-08T02:38:10;15.20;92.10
55777;DHT22;54079;44.540;18.784;2023-10-08T02:40:39;15.10;92.30
55777;DHT22;54079;44.540;18.784;2023-10-08T02:43:13;15.20;91.90
55777;DHT22;54079;44.540;18.784;2023-10-08T02:45:43;15.20;91.90
55777;DHT22;54079;44.540;18.784;2023-10-08T02:48:21;15.20;92.00
55777;DHT22;54079;44.540;18.784;2023-10-08T02:50:47;14.90;90.30
55777;DHT22;54079;44.540;18.784;2023-10-08T02:53:13;14.90;91.70
55777;DHT22;54079;44.540;18.784;2023-10-08T02:55:43;15.10;91.80
55777;DHT22;54079;44.540;18.784;2023-10-08T02:58:10;15.10;91.50
55777;DHT22;54079;44.540;18.784;2023-10-08T03:00:45;15.00;92.00
55777;DHT22;54079;44.540;18.784;2023-10-08T03:03:16;15.10;88.90
55777;DHT22;54079;44.540;18.784;2023-10-08T03:05:52;15.00;89.00
55777;DHT22;54079;44.540;18.784;2023-10-08T03:08:19;15.10;87.60
55777;DHT22;54079;44.540;18.784;2023-10-08T03:10:50;15.10;87.80
55777;DHT22;54079;44.540;18.784;2023-10-08T03:13:21;15.20;88.80
55777;DHT22;54079;44.540;18.784;2023-10-08T03:15:48;15.30;90.80
55777;DHT22;54079;44.540;18.784;2023-10-08T03:18:14;15.10;90.70
55777;DHT22;54079;44.540;18.784;2023-10-08T03:20:41;14.90;91.00
55777;DHT22;54079;44.540;18.784;2023-10-08T03:23:13;14.90;91.70
55777;DHT22;54079;44.540;18.784;2023-10-08T03:25:55;14.90;92.10
55777;DHT22;54079;44.540;18.784;2023-10-08T03:28:35;15.00;91.40
55777;DHT22;54079;44.540;18.784;2023-10-08T03:31:02;15.10;91.20
55777;DHT22;54079;44.540;18.784;2023-10-08T03:33:34;15.10;90.70
55777;DHT22;54079;44.540;18.784;2023-10-08T03:36:04;15.10;90.60
55777;DHT22;54079;44.540;18.784;2023-10-08T03:38:47;14.90;90.90
55777;DHT22;54079;44.540;18.784;2023-10-08T03:41:23;14.80;91.50
55777;DHT22;54079;44.540;18.784;2023-10-08T03:43:56;14.90;90.40
55777;DHT22;54079;44.540;18.784;2023-10-08T03:46:32;14.90;90.80
55777;DHT22;54079;44.540;18.784;2023-10-08T03:49:05;14.70;91.00
55777;DHT22;54079;44.540;18.784;2023-10-08T03:51:42;14.60;90.60
55777;DHT22;54079;44.540;18.784;2023-10-08T03:54:08;14.60;90.20
55777;DHT22;54079;44.540;18.784;2023-10-08T03:56:40;14.60;89.40
55777;DHT22;54079;44.540;18.784;2023-10-08T03:59:14;14.40;90.80
55777;DHT22;54079;44.540;18.784;2023-10-08T04:01:46;14.30;89.80
55777;DHT22;54079;44.540;18.784;2023-10-08T04:04:14;14.70;90.80
55777;DHT22;54079;44.540;18.784;2023-10-08T04:06:43;14.80;88.70
55777;DHT22;54079;44.540;18.784;2023-10-08T04:09:17;14.90;88.90
55777;DHT22;54079;44.540;18.784;2023-10-08T04:11:46;15.00;89.70
55777;DHT22;54079;44.540;18.784;2023-10-08T04:14:13;15.10;89.30
55777;DHT22;54079;44.540;18.784;2023-10-08T04:16:42;15.20;89.70
55777;DHT22;54079;44.540;18.784;2023-10-08T04:19:08;15.00;88.00
55777;DHT22;54079;44.540;18.784;2023-10-08T04:21:34;15.10;89.00
55777;DHT22;54079;44.540;18.784;2023-10-08T04:24:01;15.10;88.20
55777;DHT22;54079;44.540;18.784;2023-10-08T04:26:29;14.80;87.80
55777;DHT22;54079;44.540;18.784;2023-10-08T04:28:58;14.90;88.10
55777;DHT22;54079;44.540;18.784;2023-10-08T04:31:24;15.10;88.30
55777;DHT22;54079;44.540;18.784;2023-10-08T04:33:55;15.10;89.10
55777;DHT22;54079;44.540;18.784;2023-10-08T04:36:25;15.00;87.70
55777;DHT22;54079;44.540;18.784;2023-10-08T04:38:51;15.10;86.80
55777;DHT22;54079;44.540;18.784;2023-10-08T04:41:20;15.20;87.80
55777;DHT22;54079;44.540;18.784;2023-10-08T04:43:53;15.20;88.20
55777;DHT22;54079;44.540;18.784;2023-10-08T04:46:21;15.10;89.10
55777;DHT22;54079;44.540;18.784;2023-10-08T04:49:07;15.20;87.80
55777;DHT22;54079;44.540;18.784;2023-10-08T04:51:43;15.40;88.20
55777;DHT22;54079;44.540;18.784;2023-10-08T04:54:12;15.40;86.70
55777;DHT22;54079;44.540;18.784;2023-10-08T04:56:42;15.40;88.30
55777;DHT22;54079;44.540;18.784;2023-10-08T04:59:09;15.30;88.00
55777;DHT22;54079;44.540;18.784;2023-10-08T05:01:37;15.30;87.90
55777;DHT22;54079;44.540;18.784;2023-10-08T05:04:22;15.50;87.60
55777;DHT22;54079;44.540;18.784;2023-10-08T05:06:58;15.60;88.80
55777;DHT22;54079;44.540;18.784;2023-10-08T05:09:43;15.70;88.70
55777;DHT22;54079;44.540;18.784;2023-10-08T05:12:37;15.70;86.70
55777;DHT22;54079;44.540;18.784;2023-10-08T05:15:04;15.80;88.00
55777;DHT22;54079;44.540;18.784;2023-10-08T05:17:44;15.80;89.10
55777;DHT22;54079;44.540;18.784;2023-10-08T05:20:16;15.80;84.70
55777;DHT22;54079;44.540;18.784;2023-10-08T05:22:58;15.70;85.70
55777;DHT22;54079;44.540;18.784;2023-10-08T05:25:43;15.80;86.40
55777;DHT22;54079;44.540;18.784;2023-10-08T05:28:39;15.90;88.70
55777;DHT22;54079;44.540;18.784;2023-10-08T05:31:23;15.80;89.00
55777;DHT22;54079;44.540;18.784;2023-10-08T05:34:13;15.90;85.70
55777;DHT22;54079;44.540;18.784;2023-10-08T05:36:58;16.00;86.20
55777;DHT22;54079;44.540;18.784;2023-10-08T05:39:30;16.10;89.20
55777;DHT22;54079;44.540;18.784;2023-10-08T05:42:09;16.20;87.60
55777;DHT22;54079;44.540;18.784;2023-10-08T05:44:38;16.10;89.40
55777;DHT22;54079;44.540;18.784;2023-10-08T05:47:13;16.30;89.90
55777;DHT22;54079;44.540;18.784;2023-10-08T05:50:04;16.10;88.70
55777;DHT22;54079;44.540;18.784;2023-10-08T05:52:44;16.40;84.50
55777;DHT22;54079;44.540;18.784;2023-10-08T05:55:22;16.50;84.00
55777;DHT22;54079;44.540;18.784;2023-10-08T05:58:11;16.70;83.90
55777;DHT22;54079;44.540;18.784;2023-10-08T06:00:44;16.70;84.50
55777;DHT22;54079;44.540;18.784;2023-10-08T06:03:19;16.20;89.10
55777;DHT22;54079;44.540;18.784;2023-10-08T06:06:07;16.00;81.70
55777;DHT22;54079;44.540;18.784;2023-10-08T06:08:37;16.40;88.80
55777;DHT22;54079;44.540;18.784;2023-10-08T06:11:38;16.60;87.60
55777;DHT22;54079;44.540;18.784;2023-10-08T06:14:11;16.80;86.90
55777;DHT22;54079;44.540;18.784;2023-10-08T06:16:53;16.50;88.20
55777;DHT22;54079;44.540;18.784;2023-10-08T06:19:41;16.70;90.30
55777;DHT22;54079;44.540;18.784;2023-10-08T06:22:08;17.00;88.50
55777;DHT22;54079;44.540;18.784;2023-10-08T06:24:34;16.90;86.90
55777;DHT22;54079;44.540;18.784;2023-10-08T06:27:04;16.70;87.90
55777;DHT22;54079;44.540;18.784;2023-10-08T06:29:31;17.20;89.70
55777;DHT22;54079;44.540;18.784;2023-10-08T06:31:58;17.80;89.30
55777;DHT22;54079;44.540;18.784;2023-10-08T06:34:28;18.20;87.00
55777;DHT22;54079;44.540;18.784;2023-10-08T06:36:57;18.60;85.50
55777;DHT22;54079;44.540;18.784;2023-10-08T06:39:24;19.00;84.80
55777;DHT22;54079;44.540;18.784;2023-10-08T06:41:54;19.60;81.70
55777;DHT22;54079;44.540;18.784;2023-10-08T06:44:23;19.40;78.20
55777;DHT22;54079;44.540;18.784;2023-10-08T06:46:49;18.80;80.60
55777;DHT22;54079;44.540;18.784;2023-10-08T06:49:18;19.00;82.00
55777;DHT22;54079;44.540;18.784;2023-10-08T06:51:44;19.40;81.90
55777;DHT22;54079;44.540;18.784;2023-10-08T06:54:10;19.80;81.50
55777;DHT22;54079;44.540;18.784;2023-10-08T06:56:39;20.00;79.40
55777;DHT22;54079;44.540;18.784;2023-10-08T06:59:13;20.10;79.80
55777;DHT22;54079;44.540;18.784;2023-10-08T07:01:39;20.20;79.90
55777;DHT22;54079;44.540;18.784;2023-10-08T07:04:06;20.10;77.40
55777;DHT22;54079;44.540;18.784;2023-10-08T07:06:38;20.30;75.30
55777;DHT22;54079;44.540;18.784;2023-10-08T07:09:06;20.50;73.90
55777;DHT22;54079;44.540;18.784;2023-10-08T07:11:51;20.80;73.70
55777;DHT22;54079;44.540;18.784;2023-10-08T07:14:31;21.20;72.80
55777;DHT22;54079;44.540;18.784;2023-10-08T07:16:57;22.10;71.20
55777;DHT22;54079;44.540;18.784;2023-10-08T07:19:27;22.90;69.40
55777;DHT22;54079;44.540;18.784;2023-10-08T07:22:07;23.70;67.60
55777;DHT22;54079;44.540;18.784;2023-10-08T07:24:44;25.30;64.70
55777;DHT22;54079;44.540;18.784;2023-10-08T07:27:17;26.00;60.40
55777;DHT22;54079;44.540;18.784;2023-10-08T07:29:48;25.60;60.10
55777;DHT22;54079;44.540;18.784;2023-10-08T07:32:14;25.00;61.70
55777;DHT22;54079;44.540;18.784;2023-10-08T07:34:44;24.30;64.20
55777;DHT22;54079;44.540;18.784;2023-10-08T07:37:10;24.10;66.20
55777;DHT22;54079;44.540;18.784;2023-10-08T07:39:37;23.80;66.50
55777;DHT22;54079;44.540;18.784;2023-10-08T07:42:12;23.70;65.10
55777;DHT22;54079;44.540;18.784;2023-10-08T07:44:38;23.40;65.70
55777;DHT22;54079;44.540;18.784;2023-10-08T07:47:05;23.20;67.00
55777;DHT22;54079;44.540;18.784;2023-10-08T08:01:17;22.80;69.00
55777;DHT22;54079;44.540;18.784;2023-10-08T08:03:45;23.80;70.10
55777;DHT22;54079;44.540;18.784;2023-10-08T08:06:14;24.20;68.10
55777;DHT22;54079;44.540;18.784;2023-10-08T08:08:41;24.30;64.70
55777;DHT22;54079;44.540;18.784;2023-10-08T08:11:08;24.40;68.20
55777;DHT22;54079;44.540;18.784;2023-10-08T08:13:44;24.60;68.20
55777;DHT22;54079;44.540;18.784;2023-10-08T08:16:16;25.10;67.80
55777;DHT22;54079;44.540;18.784;2023-10-08T08:18:50;25.10;67.10
55777;DHT22;54079;44.540;18.784;2023-10-08T08:21:18;25.10;67.40
55777;DHT22;54079;44.540;18.784;2023-10-08T08:23:46;24.90;68.10
55777;DHT22;54079;44.540;18.784;2023-10-08T08:26:20;24.90;68.40
55777;DHT22;54079;44.540;18.784;2023-10-08T08:28:56;24.80;68.60
55777;DHT22;54079;44.540;18.784;2023-10-08T08:31:24;24.90;68.40
55777;DHT22;54079;44.540;18.784;2023-10-08T08:33:53;24.60;66.80
55777;DHT22;54079;44.540;18.784;2023-10-08T08:36:25;24.70;67.40
55777;DHT22;54079;44.540;18.784;2023-10-08T08:38:51;25.10;67.10
55777;DHT22;54079;44.540;18.784;2023-10-08T08:41:17;25.10;65.80
55777;DHT22;54079;44.540;18.784;2023-10-08T08:43:48;24.90;64.80
55777;DHT22;54079;44.540;18.784;2023-10-08T08:46:14;24.70;66.40
55777;DHT22;54079;44.540;18.784;2023-10-08T08:48:42;24.70;66.70
55777;DHT22;54079;44.540;18.784;2023-10-08T08:51:10;24.70;66.40
55777;DHT22;54079;44.540;18.784;2023-10-08T08:53:37;24.80;66.60
55777;DHT22;54079;44.540;18.784;2023-10-08T08:56:08;25.40;65.40
55777;DHT22;54079;44.540;18.784;2023-10-08T08:58:35;25.60;63.40
55777;DHT22;54079;44.540;18.784;2023-10-08T09:01:05;25.60;62.80
55777;DHT22;54079;44.540;18.784;2023-10-08T09:03:32;25.90;62.00
55777;DHT22;54079;44.540;18.784;2023-10-08T09:05:58;26.00;61.90
55777;DHT22;54079;44.540;18.784;2023-10-08T09:08:37;26.30;61.60
55777;DHT22;54079;44.540;18.784;2023-10-08T09:11:07;26.80;60.20
55777;DHT22;54079;44.540;18.784;2023-10-08T09:13:34;27.10;59.20
55777;DHT22;54079;44.540;18.784;2023-10-08T09:16:15;27.40;58.10
55777;DHT22;54079;44.540;18.784;2023-10-08T09:18:45;27.50;52.90
55777;DHT22;54079;44.540;18.784;2023-10-08T09:21:16;27.90;54.40
55777;DHT22;54079;44.540;18.784;2023-10-08T09:23:50;28.30;53.30
55777;DHT22;54079;44.540;18.784;2023-10-08T09:26:21;28.40;50.60
55777;DHT22;54079;44.540;18.784;2023-10-08T09:28:48;28.50;50.40
55777;DHT22;54079;44.540;18.784;2023-10-08T09:31:14;29.00;50.90
55777;DHT22;54079;44.540;18.784;2023-10-08T09:33:40;29.20;50.60
55777;DHT22;54079;44.540;18.784;2023-10-08T09:36:08;28.60;49.50
55777;DHT22;54079;44.540;18.784;2023-10-08T09:38:37;28.80;49.60
55777;DHT22;54079;44.540;18.784;2023-10-08T09:41:03;28.50;50.30
55777;DHT22;54079;44.540;18.784;2023-10-08T09:43:30;29.00;50.40
55777;DHT22;54079;44.540;18.784;2023-10-08T09:46:19;29.10;49.30
55777;DHT22;54079;44.540;18.784;2023-10-08T09:48:52;29.00;48.40
55777;DHT22;54079;44.540;18.784;2023-10-08T09:51:21;28.60;50.50
55777;DHT22;54079;44.540;18.784;2023-10-08T09:56:24;28.30;51.00
55777;DHT22;54079;44.540;18.784;2023-10-08T09:58:52;28.50;50.60
55777;DHT22;54079;44.540;18.784;2023-10-08T10:01:19;28.90;50.60
55777;DHT22;54079;44.540;18.784;2023-10-08T10:03:48;29.30;49.40
55777;DHT22;54079;44.540;18.784;2023-10-08T10:06:17;29.00;48.30
55777;DHT22;54079;44.540;18.784;2023-10-08T10:08:44;28.70;49.50
55777;DHT22;54079;44.540;18.784;2023-10-08T10:11:11;28.30;50.80
55777;DHT22;54079;44.540;18.784;2023-10-08T10:13:45;28.40;49.80
55777;DHT22;54079;44.540;18.784;2023-10-08T10:16:17;28.70;49.50
55777;DHT22;54079;44.540;18.784;2023-10-08T10:18:45;29.00;51.90
55777;DHT22;54079;44.540;18.784;2023-10-08T10:23:45;29.10;49.80
55777;DHT22;54079;44.540;18.784;2023-10-08T10:26:26;29.00;49.40
55777;DHT22;54079;44.540;18.784;2023-10-08T10:31:35;28.50;51.30
55777;DHT22;54079;44.540;18.784;2023-10-08T10:34:07;28.50;50.30
55777;DHT22;54079;44.540;18.784;2023-10-08T10:36:39;28.20;51.40
55777;DHT22;54079;44.540;18.784;2023-10-08T10:39:11;28.10;51.80
55777;DHT22;54079;44.540;18.784;2023-10-08T10:41:47;27.50;50.20
55777;DHT22;54079;44.540;18.784;2023-10-08T10:44:17;27.40;50.50
55777;DHT22;54079;44.540;18.784;2023-10-08T10:46:44;27.40;51.50
55777;DHT22;54079;44.540;18.784;2023-10-08T10:49:19;27.40;51.30
55777;DHT22;54079;44.540;18.784;2023-10-08T10:51:56;27.40;51.00
55777;DHT22;54079;44.540;18.784;2023-10-08T10:54:26;27.30;52.10
55777;DHT22;54079;44.540;18.784;2023-10-08T10:57:01;27.20;52.70
55777;DHT22;54079;44.540;18.784;2023-10-08T10:59:32;27.10;51.70
55777;DHT22;54079;44.540;18.784;2023-10-08T11:02:04;27.20;53.00
55777;DHT22;54079;44.540;18.784;2023-10-08T11:04:35;27.30;52.30
55777;DHT22;54079;44.540;18.784;2023-10-08T11:07:21;27.50;53.70
55777;DHT22;54079;44.540;18.784;2023-10-08T11:09:50;27.30;52.00
55777;DHT22;54079;44.540;18.784;2023-10-08T11:12:18;27.30;52.30
55777;DHT22;54079;44.540;18.784;2023-10-08T11:14:49;27.30;53.30
55777;DHT22;54079;44.540;18.784;2023-10-08T11:17:22;27.30;52.70
55777;DHT22;54079;44.540;18.784;2023-10-08T11:19:48;27.40;52.40
55777;DHT22;54079;44.540;18.784;2023-10-08T11:22:17;27.40;52.60
55777;DHT22;54079;44.540;18.784;2023-10-08T11:24:46;27.40;53.30
55777;DHT22;54079;44.540;18.784;2023-10-08T11:27:19;27.20;52.20
55777;DHT22;54079;44.540;18.784;2023-10-08T11:29:56;27.30;51.20
55777;DHT22;54079;44.540;18.784;2023-10-08T11:32:26;27.30;52.30
55777;DHT22;54079;44.540;18.784;2023-10-08T11:34:59;27.20;52.40
55777;DHT22;54079;44.540;18.784;2023-10-08T11:37:30;27.20;51.70
55777;DHT22;54079;44.540;18.784;2023-10-08T11:39:59;27.30;52.10
55777;DHT22;54079;44.540;18.784;2023-10-08T11:42:34;27.30;52.10
55777;DHT22;54079;44.540;18.784;2023-10-08T11:45:00;27.20;50.70
55777;DHT22;54079;44.540;18.784;2023-10-08T11:47:47;27.20;51.40
55777;DHT22;54079;44.540;18.784;2023-10-08T11:50:23;27.20;52.00
55777;DHT22;54079;44.540;18.784;2023-10-08T11:52:57;27.40;51.10
55777;DHT22;54079;44.540;18.784;2023-10-08T11:55:27;27.60;51.30
55777;DHT22;54079;44.540;18.784;2023-10-08T11:57:53;27.70;51.70
55777;DHT22;54079;44.540;18.784;2023-10-08T12:00:20;27.90;52.00
55777;DHT22;54079;44.540;18.784;2023-10-08T12:02:48;28.20;50.20
55777;DHT22;54079;44.540;18.784;2023-10-08T12:05:14;28.70;49.60
55777;DHT22;54079;44.540;18.784;2023-10-08T12:07:50;28.90;49.40
55777;DHT22;54079;44.540;18.784;2023-10-08T12:10:20;29.00;49.80
55777;DHT22;54079;44.540;18.784;2023-10-08T12:12:50;29.00;49.20
55777;DHT22;54079;44.540;18.784;2023-10-08T12:15:21;29.30;49.30
55777;DHT22;54079;44.540;18.784;2023-10-08T12:17:51;29.50;50.20
55777;DHT22;54079;44.540;18.784;2023-10-08T12:20:41;29.80;49.70
55777;DHT22;54079;44.540;18.784;2023-10-08T12:23:11;29.70;49.00
55777;DHT22;54079;44.540;18.784;2023-10-08T12:25:37;29.70;49.70
55777;DHT22;54079;44.540;18.784;2023-10-08T12:28:05;29.70;49.80
55777;DHT22;54079;44.540;18.784;2023-10-08T12:30:32;29.80;50.10
55777;DHT22;54079;44.540;18.784;2023-10-08T12:33:00;30.00;50.70
55777;DHT22;54079;44.540;18.784;2023-10-08T12:35:27;29.80;50.00
55777;DHT22;54079;44.540;18.784;2023-10-08T12:37:55;29.90;50.00
55777;DHT22;54079;44.540;18.784;2023-10-08T12:40:21;30.00;50.60
55777;DHT22;54079;44.540;18.784;2023-10-08T12:42:53;30.00;50.40
55777;DHT22;54079;44.540;18.784;2023-10-08T12:45:20;30.10;50.60
55777;DHT22;54079;44.540;18.784;2023-10-08T12:47:50;29.90;50.00
55777;DHT22;54079;44.540;18.784;2023-10-08T12:50:20;29.50;50.80
55777;DHT22;54079;44.540;18.784;2023-10-08T12:52:58;29.00;51.20
55777;DHT22;54079;44.540;18.784;2023-10-08T12:55:30;29.00;51.90
55777;DHT22;54079;44.540;18.784;2023-10-08T12:57:56;28.80;51.00
55777;DHT22;54079;44.540;18.784;2023-10-08T13:00:32;28.80;51.40
55777;DHT22;54079;44.540;18.784;2023-10-08T13:02:58;28.80;51.60
55777;DHT22;54079;44.540;18.784;2023-10-08T13:05:26;28.90;51.40
55777;DHT22;54079;44.540;18.784;2023-10-08T13:07:57;28.80;51.40
55777;DHT22;54079;44.540;18.784;2023-10-08T13:10:29;28.80;50.90
55777;DHT22;54079;44.540;18.784;2023-10-08T13:12:56;28.80;51.60
55777;DHT22;54079;44.540;18.784;2023-10-08T13:15:23;28.70;51.60
55777;DHT22;54079;44.540;18.784;2023-10-08T13:17:54;28.90;51.40
55777;DHT22;54079;44.540;18.784;2023-10-08T13:20:21;28.90;51.40
55777;DHT22;54079;44.540;18.784;2023-10-08T13:22:54;28.80;51.00
55777;DHT22;54079;44.540;18.784;2023-10-08T13:25:22;28.90;50.90
55777;DHT22;54079;44.540;18.784;2023-10-08T13:27:48;29.00;50.70
55777;DHT22;54079;44.540;18.784;2023-10-08T13:30:14;29.00;51.10
55777;DHT22;54079;44.540;18.784;2023-10-08T13:32:42;29.30;51.00
55777;DHT22;54079;44.540;18.784;2023-10-08T13:35:09;29.50;50.00
55777;DHT22;54079;44.540;18.784;2023-10-08T13:37:37;29.80;50.30
55777;DHT22;54079;44.540;18.784;2023-10-08T13:40:03;30.00;50.00
55777;DHT22;54079;44.540;18.784;2023-10-08T13:42:29;29.70;49.20
55777;DHT22;54079;44.540;18.784;2023-10-08T13:44:57;29.60;49.90
55777;DHT22;54079;44.540;18.784;2023-10-08T13:47:33;29.60;49.90
55777;DHT22;54079;44.540;18.784;2023-10-08T13:49:59;29.60;49.70
55777;DHT22;54079;44.540;18.784;2023-10-08T13:52:25;29.60;48.70
55777;DHT22;54079;44.540;18.784;2023-10-08T13:54:55;29.70;49.00
55777;DHT22;54079;44.540;18.784;2023-10-08T13:57:21;29.70;47.50
55777;DHT22;54079;44.540;18.784;2023-10-08T13:59:48;29.50;48.10
55777;DHT22;54079;44.540;18.784;2023-10-08T14:02:14;29.00;47.60
55777;DHT22;54079;44.540;18.784;2023-10-08T14:04:43;29.00;48.90
55777;DHT22;54079;44.540;18.784;2023-10-08T14:07:10;28.90;48.20
55777;DHT22;54079;44.540;18.784;2023-10-08T14:09:43;28.80;48.50
55777;DHT22;54079;44.540;18.784;2023-10-08T14:12:12;29.00;48.30
55777;DHT22;54079;44.540;18.784;2023-10-08T14:14:39;29.00;49.00
55777;DHT22;54079;44.540;18.784;2023-10-08T14:17:20;28.80;47.70
55777;DHT22;54079;44.540;18.784;2023-10-08T14:20:05;28.70;48.70
55777;DHT22;54079;44.540;18.784;2023-10-08T14:22:39;28.50;48.60
55777;DHT22;54079;44.540;18.784;2023-10-08T14:25:08;28.50;48.90
55777;DHT22;54079;44.540;18.784;2023-10-08T14:27:38;28.20;48.80
55777;DHT22;54079;44.540;18.784;2023-10-08T14:30:10;28.40;49.60
55777;DHT22;54079;44.540;18.784;2023-10-08T14:32:49;28.30;49.00
55777;DHT22;54079;44.540;18.784;2023-10-08T14:35:16;28.40;49.20
55777;DHT22;54079;44.540;18.784;2023-10-08T14:38:00;28.20;49.30
55777;DHT22;54079;44.540;18.784;2023-10-08T14:40:46;28.30;50.00
55777;DHT22;54079;44.540;18.784;2023-10-08T14:43:31;28.10;50.00
55777;DHT22;54079;44.540;18.784;2023-10-08T14:46:01;27.90;50.60
55777;DHT22;54079;44.540;18.784;2023-10-08T14:48:33;27.30;51.30
55777;DHT22;54079;44.540;18.784;2023-10-08T14:51:01;27.10;51.60
55777;DHT22;54079;44.540;18.784;2023-10-08T14:53:32;27.10;52.00
55777;DHT22;54079;44.540;18.784;2023-10-08T14:56:00;27.10;52.20
55777;DHT22;54079;44.540;18.784;2023-10-08T14:58:30;26.90;51.40
55777;DHT22;54079;44.540;18.784;2023-10-08T15:00:56;27.00;52.10
55777;DHT22;54079;44.540;18.784;2023-10-08T15:03:21;27.20;52.00
55777;DHT22;54079;44.540;18.784;2023-10-08T15:05:47;27.10;52.10
55777;DHT22;54079;44.540;18.784;2023-10-08T15:08:15;26.80;52.40
55777;DHT22;54079;44.540;18.784;2023-10-08T15:10:44;26.90;52.70
55777;DHT22;54079;44.540;18.784;2023-10-08T15:13:12;26.80;52.70
55777;DHT22;54079;44.540;18.784;2023-10-08T15:15:38;26.70;52.70
55777;DHT22;54079;44.540;18.784;2023-10-08T15:18:05;26.60;53.00
55777;DHT22;54079;44.540;18.784;2023-10-08T15:20:32;26.60;53.20
55777;DHT22;54079;44.540;18.784;2023-10-08T15:22:59;26.60;53.10
55777;DHT22;54079;44.540;18.784;2023-10-08T15:25:25;26.60;53.50
55777;DHT22;54079;44.540;18.784;2023-10-08T15:27:51;26.50;53.40
55777;DHT22;54079;44.540;18.784;2023-10-08T15:30:19;26.50;53.90
55777;DHT22;54079;44.540;18.784;2023-10-08T15:32:47;26.50;54.90
55777;DHT22;54079;44.540;18.784;2023-10-08T15:35:16;26.50;55.20
55777;DHT22;54079;44.540;18.784;2023-10-08T15:37:46;26.20;55.20
55777;DHT22;54079;44.540;18.784;2023-10-08T15:40:13;26.20;55.10
55777;DHT22;54079;44.540;18.784;2023-10-08T15:42:54;26.10;55.10
55777;DHT22;54079;44.540;18.784;2023-10-08T15:45:21;25.80;55.60
55777;DHT22;54079;44.540;18.784;2023-10-08T15:47:51;25.60;56.20
55777;DHT22;54079;44.540;18.784;2023-10-08T15:50:19;25.60;56.40
55777;DHT22;54079;44.540;18.784;2023-10-08T15:52:46;25.70;56.90
55777;DHT22;54079;44.540;18.784;2023-10-08T15:55:13;25.80;56.00
55777;DHT22;54079;44.540;18.784;2023-10-08T15:57:39;25.80;56.50
55777;DHT22;54079;44.540;18.784;2023-10-08T16:00:08;25.70;56.10